Glanamman, United Kingdom
Current Conditions -  °F | °C
As of 5:50 AM on Sunday 26 Oct 2014 (Local Time) from EGOP Reporting Station
Broken Clouds Broken Clouds  
Wind Chill: 57°   Ceiling: 2800
Heat Index: 57°   Visibility: 6mi
Dew Point: 50°   Wind: 30mph
Humidity: 77%   Direction: 230°SW
Pressure: 30.06"   Gusts: NA
Location:  51.8°N, 3.93°W
Report Text: EGOP 260450Z AUTO 23026KT 9999 // BKN028/// 14/10 Q1018
Loading
Personal Weather Stations






























Interactive Weather Map
Tropical Storm Tracking
New forecast layout! Learn more

10-Day Weather Forecast

Advertisements
Track Severe Weather on mobile